Time;durP1;ratioP1;P1;durP2;ratioP2;P2;SDS_P1;SDS_P2;PMS_P1;PMS_P2;Temp;Humidity;BMP_temperature;BMP_pressure;BME280_temperature;BME280_humidity;BME280_pressure;Samples;Min_cycle;Max_cycle;Signal;HPM_P1;HPM_P2
2023/04/06 00:01:36;;;;;;;41.15;36.78;;;;;;;;;;4989480;28;20385;-77
2023/04/06 00:04:02;;;;;;;49.20;43.75;;;;;;;;;;4978586;28;20036;-76
2023/04/06 00:06:27;;;;;;;40.47;36.28;;;;;;;;;;4990292;28;20065;-74
2023/04/06 00:08:52;;;;;;;56.35;47.78;;;;;;;;;;4988217;28;20034;-75
2023/04/06 00:11:18;;;;;;;58.65;52.05;;;;;;;;;;4988283;28;20034;-75
2023/04/06 00:13:43;;;;;;;41.50;37.22;;;;;;;;;;4992529;28;20129;-74
2023/04/06 00:16:09;;;;;;;40.97;36.60;;;;;;;;;;4990697;28;20358;-75
2023/04/06 00:18:34;;;;;;;71.15;58.80;;;;;;;;;;4989391;28;20356;-77
2023/04/06 00:21:00;;;;;;;86.03;72.38;;;;;;;;;;4988385;28;20072;-76
2023/04/06 00:23:25;;;;;;;50.33;45.00;;;;;;;;;;4989206;28;20134;-75
2023/04/06 00:25:50;;;;;;;45.83;41.22;;;;;;;;;;4989635;28;20026;-77
2023/04/06 00:28:16;;;;;;;101.78;82.25;;;;;;;;;;4986963;28;20035;-74
2023/04/06 00:30:41;;;;;;;49.35;44.60;;;;;;;;;;4988867;28;20034;-75
2023/04/06 00:33:06;;;;;;;46.53;41.70;;;;;;;;;;4988531;28;20121;-73
2023/04/06 00:35:32;;;;;;;49.35;44.40;;;;;;;;;;4988193;28;20038;-76
2023/04/06 00:37:57;;;;;;;54.28;48.67;;;;;;;;;;4979225;28;20049;-74
2023/04/06 00:40:22;;;;;;;43.83;39.63;;;;;;;;;;5006332;28;20437;-75
2023/04/06 00:42:48;;;;;;;51.85;46.85;;;;;;;;;;4987862;28;20442;-74
2023/04/06 00:45:13;;;;;;;60.65;54.53;;;;;;;;;;4990099;28;20030;-75
2023/04/06 00:47:38;;;;;;;70.43;62.83;;;;;;;;;;4979160;28;20468;-78
2023/04/06 00:50:04;;;;;;;60.60;51.72;;;;;;;;;;4987356;28;20032;-75
2023/04/06 00:52:30;;;;;;;81.80;69.00;;;;;;;;;;4994647;28;20117;-75
2023/04/06 00:54:55;;;;;;;59.10;52.28;;;;;;;;;;4995653;28;20069;-75
2023/04/06 00:57:20;;;;;;;58.85;52.47;;;;;;;;;;4986485;28;20026;-75
2023/04/06 00:59:45;;;;;;;65.57;57.75;;;;;;;;;;4990798;28;20045;-75
2023/04/06 01:02:11;;;;;;;64.00;57.05;;;;;;;;;;4995125;28;20109;-76
2023/04/06 01:04:37;;;;;;;76.95;65.60;;;;;;;;;;4990329;28;20204;-75
2023/04/06 01:07:02;;;;;;;59.88;53.28;;;;;;;;;;4986030;28;20085;-75
2023/04/06 01:09:29;;;;;;;47.13;42.42;;;;;;;;;;4992953;28;20034;-77
2023/04/06 01:11:55;;;;;;;46.70;41.75;;;;;;;;;;4987451;28;20028;-75
2023/04/06 01:14:20;;;;;;;49.13;43.92;;;;;;;;;;4997665;28;20025;-75
2023/04/06 01:16:46;;;;;;;55.50;49.42;;;;;;;;;;4993912;28;20091;-75
2023/04/06 01:19:12;;;;;;;57.92;49.30;;;;;;;;;;4994248;28;20021;-75
2023/04/06 01:21:37;;;;;;;42.72;38.22;;;;;;;;;;4992191;28;20030;-77
2023/04/06 01:24:03;;;;;;;43.45;39.08;;;;;;;;;;4995340;28;20547;-79
2023/04/06 01:26:29;;;;;;;37.03;33.35;;;;;;;;;;4990725;28;20030;-76
2023/04/06 01:28:54;;;;;;;45.03;40.08;;;;;;;;;;4988579;28;20452;-78
2023/04/06 01:31:20;;;;;;;35.92;32.53;;;;;;;;;;4991334;28;20084;-75
2023/04/06 01:33:45;;;;;;;35.03;31.52;;;;;;;;;;4990601;28;20050;-76
2023/04/06 01:36:11;;;;;;;34.75;31.38;;;;;;;;;;4989885;28;20034;-76
2023/04/06 01:38:36;;;;;;;36.38;32.70;;;;;;;;;;4992860;28;20019;-79
2023/04/06 01:41:01;;;;;;;32.50;29.27;;;;;;;;;;4992490;28;20398;-78
2023/04/06 01:43:27;;;;;;;53.13;43.20;;;;;;;;;;4981195;28;20053;-76
2023/04/06 01:45:52;;;;;;;36.72;32.97;;;;;;;;;;4991505;28;20108;-77
2023/04/06 01:48:18;;;;;;;36.47;32.60;;;;;;;;;;4987112;28;20057;-78
2023/04/06 01:50:43;;;;;;;56.88;46.85;;;;;;;;;;4981545;28;20144;-76
2023/04/06 01:53:08;;;;;;;36.35;32.85;;;;;;;;;;4986996;28;20046;-75
2023/04/06 01:55:34;;;;;;;95.15;70.53;;;;;;;;;;4990835;28;20042;-76
2023/04/06 01:57:59;;;;;;;58.10;51.40;;;;;;;;;;4992823;28;20026;-76
2023/04/06 02:00:25;;;;;;;60.03;51.15;;;;;;;;;;4995486;28;20026;-76
2023/04/06 02:02:50;;;;;;;40.22;35.40;;;;;;;;;;4982445;28;20026;-78
2023/04/06 02:05:16;;;;;;;37.35;33.55;;;;;;;;;;4980812;28;20026;-76
2023/04/06 02:07:41;;;;;;;32.05;29.05;;;;;;;;;;4982064;28;20036;-77
2023/04/06 02:10:11;;;;;;;41.25;37.03;;;;;;;;;;4981715;28;21317;-76
2023/04/06 02:12:36;;;;;;;44.08;39.55;;;;;;;;;;4980974;28;20441;-76
2023/04/06 02:15:02;;;;;;;34.63;31.27;;;;;;;;;;4994196;28;20030;-75
2023/04/06 02:17:27;;;;;;;36.80;33.05;;;;;;;;;;4999321;28;20030;-75
2023/04/06 02:19:52;;;;;;;35.13;31.70;;;;;;;;;;4988265;28;20477;-77
2023/04/06 02:22:17;;;;;;;35.58;31.92;;;;;;;;;;4991152;28;20145;-76
2023/04/06 02:24:43;;;;;;;31.42;28.30;;;;;;;;;;4993197;28;20085;-74
2023/04/06 02:27:08;;;;;;;28.85;25.80;;;;;;;;;;4989434;28;20022;-76
2023/04/06 02:29:33;;;;;;;31.40;28.15;;;;;;;;;;4992696;28;20073;-76
2023/04/06 02:31:59;;;;;;;34.00;30.40;;;;;;;;;;4986710;28;20036;-76
2023/04/06 02:34:24;;;;;;;30.35;27.05;;;;;;;;;;4986566;28;20121;-76
2023/04/06 02:36:50;;;;;;;35.90;32.20;;;;;;;;;;4993376;28;20026;-76
2023/04/06 02:39:15;;;;;;;30.48;27.48;;;;;;;;;;4994578;28;20034;-76
2023/04/06 02:41:40;;;;;;;25.88;23.33;;;;;;;;;;4990008;28;20029;-77
2023/04/06 02:44:07;;;;;;;25.50;23.00;;;;;;;;;;4985989;28;20034;-77
2023/04/06 02:46:32;;;;;;;24.10;21.70;;;;;;;;;;4986310;28;20050;-77
2023/04/06 02:49:00;;;;;;;27.38;24.75;;;;;;;;;;4984183;28;20040;-75
2023/04/06 02:51:25;;;;;;;26.17;23.42;;;;;;;;;;4992088;28;20057;-78
2023/04/06 02:53:51;;;;;;;26.02;23.30;;;;;;;;;;4989312;28;20504;-76
2023/04/06 02:56:16;;;;;;;25.02;22.17;;;;;;;;;;4984967;28;20073;-76
2023/04/06 02:58:41;;;;;;;25.92;23.08;;;;;;;;;;4992499;28;21118;-78
2023/04/06 03:01:06;;;;;;;54.53;41.10;;;;;;;;;;4988519;28;20041;-77
2023/04/06 03:03:32;;;;;;;41.10;34.33;;;;;;;;;;4982137;28;20026;-77
2023/04/06 03:05:59;;;;;;;51.47;39.22;;;;;;;;;;4983426;28;20421;-76
2023/04/06 03:08:24;;;;;;;35.67;31.73;;;;;;;;;;4992347;28;20030;-77
2023/04/06 03:10:50;;;;;;;44.47;36.35;;;;;;;;;;4987199;28;20038;-75
2023/04/06 03:13:15;;;;;;;42.28;36.35;;;;;;;;;;4997444;28;20033;-78
2023/04/06 03:15:41;;;;;;;42.05;35.40;;;;;;;;;;4990639;28;20196;-75
2023/04/06 03:18:06;;;;;;;36.53;32.53;;;;;;;;;;4982891;28;20045;-76
2023/04/06 03:20:31;;;;;;;50.70;45.15;;;;;;;;;;4988797;28;20072;-76
2023/04/06 03:22:57;;;;;;;45.63;38.50;;;;;;;;;;4979700;28;20026;-76
2023/04/06 03:25:22;;;;;;;44.10;38.35;;;;;;;;;;4979207;28;20032;-76
2023/04/06 03:27:47;;;;;;;50.70;42.55;;;;;;;;;;4989888;28;20057;-77
2023/04/06 03:30:13;;;;;;;46.30;38.13;;;;;;;;;;4992450;28;20342;-75
2023/04/06 03:32:38;;;;;;;40.38;35.40;;;;;;;;;;4996951;28;20814;-77
2023/04/06 03:35:04;;;;;;;53.33;45.85;;;;;;;;;;4985355;28;20108;-78
2023/04/06 03:37:29;;;;;;;38.13;34.05;;;;;;;;;;4987190;28;22949;-78
2023/04/06 03:39:54;;;;;;;34.38;30.77;;;;;;;;;;4983353;28;20490;-76
2023/04/06 03:42:20;;;;;;;27.88;24.98;;;;;;;;;;4984676;28;20403;-79
2023/04/06 03:44:45;;;;;;;27.13;24.35;;;;;;;;;;4986937;28;20036;-75
2023/04/06 03:47:10;;;;;;;28.08;25.27;;;;;;;;;;4998611;28;20062;-75
2023/04/06 03:49:36;;;;;;;29.17;26.25;;;;;;;;;;4988750;28;20026;-76
2023/04/06 03:52:01;;;;;;;31.80;28.38;;;;;;;;;;4986950;28;20433;-76
2023/04/06 03:54:26;;;;;;;32.67;29.20;;;;;;;;;;4983203;28;20815;-77
2023/04/06 03:56:52;;;;;;;29.60;26.60;;;;;;;;;;4987327;28;20120;-75
2023/04/06 03:59:17;;;;;;;29.13;26.08;;;;;;;;;;4987894;28;20142;-79
2023/04/06 04:01:42;;;;;;;28.60;25.55;;;;;;;;;;4984333;28;20488;-76
2023/04/06 04:04:08;;;;;;;29.00;26.08;;;;;;;;;;4988835;28;20366;-76
2023/04/06 04:06:33;;;;;;;29.55;26.40;;;;;;;;;;4988358;28;20377;-78
2023/04/06 04:08:58;;;;;;;32.20;27.85;;;;;;;;;;4980728;28;20549;-76
2023/04/06 04:11:24;;;;;;;28.27;25.25;;;;;;;;;;4989699;28;20045;-76
2023/04/06 04:13:49;;;;;;;29.75;26.73;;;;;;;;;;4992141;28;20026;-77
2023/04/06 04:16:14;;;;;;;29.40;26.13;;;;;;;;;;4989646;28;20025;-76
2023/04/06 04:18:39;;;;;;;30.98;27.88;;;;;;;;;;4986441;28;20030;-76
2023/04/06 04:21:05;;;;;;;33.00;28.08;;;;;;;;;;4977841;28;20037;-75
2023/04/06 04:23:30;;;;;;;29.10;26.00;;;;;;;;;;4989547;28;20457;-75
2023/04/06 04:25:55;;;;;;;27.85;25.05;;;;;;;;;;4990330;28;20468;-77
2023/04/06 04:28:21;;;;;;;29.73;26.58;;;;;;;;;;4994099;28;20084;-78
2023/04/06 04:30:46;;;;;;;30.23;27.08;;;;;;;;;;4991943;28;20327;-78
2023/04/06 04:33:11;;;;;;;34.72;29.23;;;;;;;;;;4994646;28;20030;-79
2023/04/06 04:35:37;;;;;;;31.33;27.95;;;;;;;;;;4997168;28;20034;-77
2023/04/06 04:38:02;;;;;;;34.10;30.40;;;;;;;;;;4995761;28;20387;-79
2023/04/06 04:40:27;;;;;;;34.92;31.30;;;;;;;;;;4990355;28;20109;-77
2023/04/06 04:42:53;;;;;;;30.58;26.25;;;;;;;;;;4994129;28;20030;-77
2023/04/06 04:45:18;;;;;;;31.75;28.48;;;;;;;;;;4991480;28;20132;-75
2023/04/06 04:47:43;;;;;;;32.97;29.70;;;;;;;;;;4991635;28;20133;-78
2023/04/06 04:50:09;;;;;;;32.42;29.13;;;;;;;;;;4992724;28;20065;-76
2023/04/06 04:52:34;;;;;;;32.45;29.13;;;;;;;;;;4993317;28;20564;-79
2023/04/06 04:55:00;;;;;;;28.23;25.38;;;;;;;;;;4995818;28;20065;-78
2023/04/06 04:57:25;;;;;;;33.03;29.58;;;;;;;;;;4993682;28;20184;-79
2023/04/06 04:59:51;;;;;;;31.60;28.02;;;;;;;;;;4994444;28;20083;-76
2023/04/06 05:02:16;;;;;;;33.40;29.80;;;;;;;;;;4991482;28;20483;-80
2023/04/06 05:04:41;;;;;;;30.83;27.73;;;;;;;;;;4993784;28;20030;-77
2023/04/06 05:07:07;;;;;;;33.50;30.20;;;;;;;;;;4995970;28;20379;-77
2023/04/06 05:09:33;;;;;;;56.17;48.10;;;;;;;;;;4996259;28;20460;-76
2023/04/06 05:11:59;;;;;;;34.28;30.63;;;;;;;;;;4995159;28;20177;-77
2023/04/06 05:14:25;;;;;;;57.65;47.75;;;;;;;;;;4998878;28;20030;-75
2023/04/06 05:16:50;;;;;;;36.88;32.90;;;;;;;;;;4994508;28;20149;-79
2023/04/06 05:19:15;;;;;;;35.85;27.70;;;;;;;;;;4991965;28;20128;-78
2023/04/06 05:21:41;;;;;;;34.95;29.20;;;;;;;;;;4992881;28;20033;-76
2023/04/06 05:24:06;;;;;;;40.08;31.02;;;;;;;;;;4994347;28;20072;-75
2023/04/06 05:26:32;;;;;;;28.65;25.70;;;;;;;;;;4992429;28;20497;-76
2023/04/06 05:28:57;;;;;;;28.42;25.38;;;;;;;;;;4991021;28;20049;-76
2023/04/06 05:31:23;;;;;;;48.47;36.58;;;;;;;;;;4994849;28;20022;-77
2023/04/06 05:33:48;;;;;;;52.13;44.70;;;;;;;;;;4996797;28;20349;-82
2023/04/06 05:36:14;;;;;;;55.08;47.03;;;;;;;;;;4996123;28;20032;-78
2023/04/06 05:38:39;;;;;;;51.47;45.80;;;;;;;;;;4990230;28;20049;-77
2023/04/06 05:41:05;;;;;;;33.25;29.52;;;;;;;;;;4993429;28;20433;-75
2023/04/06 05:43:30;;;;;;;48.10;42.10;;;;;;;;;;5010573;28;20343;-76
2023/04/06 05:45:56;;;;;;;52.90;46.30;;;;;;;;;;4997451;28;20791;-80
2023/04/06 05:48:21;;;;;;;40.22;35.85;;;;;;;;;;4992402;28;20049;-77
2023/04/06 05:50:48;;;;;;;47.50;40.88;;;;;;;;;;4994185;28;20029;-77
2023/04/06 05:53:13;;;;;;;42.65;33.05;;;;;;;;;;4994718;28;20031;-81
2023/04/06 05:55:38;;;;;;;30.45;27.25;;;;;;;;;;4994025;28;20465;-78
2023/04/06 05:58:04;;;;;;;31.25;27.77;;;;;;;;;;4992786;28;20045;-76
2023/04/06 06:00:29;;;;;;;52.60;46.75;;;;;;;;;;4996024;28;20485;-79
2023/04/06 06:02:55;;;;;;;53.55;45.88;;;;;;;;;;4997050;28;20086;-79
2023/04/06 06:05:20;;;;;;;60.85;47.00;;;;;;;;;;4988001;28;20038;-76
2023/04/06 06:07:45;;;;;;;62.13;47.17;;;;;;;;;;4990791;28;20049;-76
2023/04/06 06:10:11;;;;;;;68.70;60.38;;;;;;;;;;4986654;28;20037;-79
2023/04/06 06:12:36;;;;;;;32.42;28.98;;;;;;;;;;4983470;28;20112;-77
2023/04/06 06:15:01;;;;;;;36.65;31.73;;;;;;;;;;4992510;28;20030;-78
2023/04/06 06:17:27;;;;;;;29.90;24.13;;;;;;;;;;4990096;28;20033;-77
2023/04/06 06:19:52;;;;;;;29.85;26.65;;;;;;;;;;4990645;28;20575;-80
2023/04/06 06:22:17;;;;;;;37.15;29.95;;;;;;;;;;4995459;28;20053;-77
2023/04/06 06:24:43;;;;;;;48.72;39.05;;;;;;;;;;4991187;28;20018;-77
2023/04/06 06:27:08;;;;;;;47.55;37.92;;;;;;;;;;4992889;28;20041;-80
2023/04/06 06:29:33;;;;;;;31.65;26.85;;;;;;;;;;4994757;28;20034;-77
2023/04/06 06:31:59;;;;;;;26.25;22.98;;;;;;;;;;5005905;28;20080;-77
2023/04/06 06:34:25;;;;;;;27.90;25.00;;;;;;;;;;4985088;28;20032;-77
2023/04/06 06:36:51;;;;;;;24.90;21.98;;;;;;;;;;4985452;28;20357;-76
2023/04/06 06:39:16;;;;;;;28.73;25.73;;;;;;;;;;4987121;28;20418;-80
2023/04/06 06:41:41;;;;;;;27.33;24.42;;;;;;;;;;4988518;28;20022;-79
2023/04/06 06:44:07;;;;;;;26.08;21.77;;;;;;;;;;4984841;28;20036;-77
2023/04/06 06:46:32;;;;;;;26.50;23.65;;;;;;;;;;4985612;28;20216;-80
2023/04/06 06:48:58;;;;;;;26.05;23.30;;;;;;;;;;4987813;28;20034;-77
2023/04/06 06:51:23;;;;;;;35.70;31.20;;;;;;;;;;4990544;28;20030;-77
2023/04/06 06:53:49;;;;;;;43.85;35.28;;;;;;;;;;4987711;28;20117;-77
2023/04/06 06:56:14;;;;;;;37.88;32.45;;;;;;;;;;4986307;28;20457;-76
2023/04/06 06:58:39;;;;;;;36.85;32.95;;;;;;;;;;4983459;28;20024;-78
2023/04/06 07:01:05;;;;;;;47.60;42.60;;;;;;;;;;4982783;28;20048;-77
2023/04/06 07:03:30;;;;;;;28.95;26.13;;;;;;;;;;5003538;28;20341;-77
2023/04/06 07:05:56;;;;;;;30.48;27.20;;;;;;;;;;4989521;28;20427;-78
2023/04/06 07:08:22;;;;;;;33.88;30.27;;;;;;;;;;4984647;28;20026;-79
2023/04/06 07:10:47;;;;;;;28.02;25.17;;;;;;;;;;4989100;28;20092;-75
2023/04/06 07:13:18;;;;;;;51.13;43.92;;;;;;;;;;4991182;28;20790;-75
2023/04/06 07:15:43;;;;;;;37.00;33.08;;;;;;;;;;4984085;28;20036;-77
2023/04/06 07:18:08;;;;;;;31.23;28.00;;;;;;;;;;4983526;28;20025;-75
2023/04/06 07:20:34;;;;;;;26.13;23.40;;;;;;;;;;4985912;28;20466;-76
2023/04/06 07:22:59;;;;;;;37.35;33.35;;;;;;;;;;4993013;28;20030;-75
2023/04/06 07:25:24;;;;;;;24.67;22.08;;;;;;;;;;4986080;28;20048;-76
2023/04/06 07:27:50;;;;;;;26.13;23.50;;;;;;;;;;4985665;28;20433;-80
2023/04/06 07:30:15;;;;;;;22.25;20.05;;;;;;;;;;4981847;28;20127;-78
2023/04/06 07:32:40;;;;;;;22.58;20.27;;;;;;;;;;4980281;28;20019;-80
2023/04/06 07:35:06;;;;;;;31.38;28.00;;;;;;;;;;4989932;28;20026;-79
2023/04/06 07:37:31;;;;;;;28.05;23.13;;;;;;;;;;4985526;28;20025;-79
2023/04/06 07:39:56;;;;;;;26.48;23.48;;;;;;;;;;4984676;28;20036;-79
2023/04/06 07:42:22;;;;;;;28.02;23.25;;;;;;;;;;4988576;28;20040;-78
2023/04/06 07:44:47;;;;;;;32.00;24.88;;;;;;;;;;4991784;28;20026;-79
2023/04/06 07:47:13;;;;;;;25.70;22.90;;;;;;;;;;4991302;28;20168;-81
2023/04/06 07:49:38;;;;;;;24.98;22.27;;;;;;;;;;4992221;28;20030;-80
2023/04/06 07:52:03;;;;;;;29.05;24.05;;;;;;;;;;4989979;28;20034;-79
2023/04/06 07:54:29;;;;;;;25.52;22.75;;;;;;;;;;4987508;28;20196;-79
2023/04/06 07:56:54;;;;;;;22.13;19.77;;;;;;;;;;4991927;28;20100;-81
2023/04/06 07:59:19;;;;;;;20.58;18.48;;;;;;;;;;4991285;28;20038;-80
2023/04/06 08:01:45;;;;;;;23.83;19.33;;;;;;;;;;4988850;28;20029;-81
2023/04/06 08:04:10;;;;;;;20.80;18.58;;;;;;;;;;4992593;28;20085;-79
2023/04/06 08:06:36;;;;;;;20.73;18.35;;;;;;;;;;4989152;28;20042;-79
2023/04/06 08:09:02;;;;;;;23.33;21.00;;;;;;;;;;4990159;28;20030;-79
2023/04/06 08:11:27;;;;;;;21.02;18.35;;;;;;;;;;4995592;28;20027;-79
2023/04/06 08:13:53;;;;;;;23.50;20.42;;;;;;;;;;4992628;28;20099;-80
2023/04/06 08:16:19;;;;;;;25.08;20.88;;;;;;;;;;4991436;28;20046;-79
2023/04/06 08:18:44;;;;;;;22.80;20.30;;;;;;;;;;4990053;28;20022;-81
2023/04/06 08:21:09;;;;;;;23.05;20.02;;;;;;;;;;4991199;28;20517;-80
2023/04/06 08:23:35;;;;;;;24.90;22.05;;;;;;;;;;4991939;28;20034;-80
2023/04/06 08:26:00;;;;;;;25.90;22.45;;;;;;;;;;4991346;28;20029;-79
2023/04/06 08:28:25;;;;;;;23.92;19.08;;;;;;;;;;4989826;28;20030;-79
2023/04/06 08:30:51;;;;;;;41.88;30.85;;;;;;;;;;4992505;28;20058;-80
2023/04/06 08:33:16;;;;;;;23.60;20.70;;;;;;;;;;4989827;28;20033;-79
2023/04/06 08:35:41;;;;;;;24.55;21.73;;;;;;;;;;4989426;28;20110;-79
2023/04/06 08:38:07;;;;;;;31.48;27.58;;;;;;;;;;4992440;28;20026;-80
2023/04/06 08:40:36;;;;;;;26.88;23.98;;;;;;;;;;4992914;28;20326;-80
2023/04/06 08:43:03;;;;;;;26.93;23.63;;;;;;;;;;4990136;28;20022;-79
2023/04/06 08:45:29;;;;;;;19.98;18.05;;;;;;;;;;4993934;28;20352;-80
2023/04/06 08:47:55;;;;;;;26.00;22.55;;;;;;;;;;4989628;28;20129;-80
2023/04/06 08:50:21;;;;;;;20.48;17.90;;;;;;;;;;4991445;28;20061;-79
2023/04/06 08:52:47;;;;;;;17.25;15.40;;;;;;;;;;4989801;28;20076;-79
2023/04/06 08:55:12;;;;;;;17.92;16.08;;;;;;;;;;4988828;28;20056;-79
2023/04/06 08:57:38;;;;;;;22.20;19.33;;;;;;;;;;4989068;28;20022;-79
2023/04/06 09:00:06;;;;;;;21.33;18.33;;;;;;;;;;4989011;28;20069;-80
2023/04/06 09:02:31;;;;;;;21.67;18.45;;;;;;;;;;4990371;28;20033;-79
2023/04/06 09:04:57;;;;;;;23.63;19.30;;;;;;;;;;4987742;28;20029;-80
2023/04/06 09:07:23;;;;;;;21.88;18.17;;;;;;;;;;4992759;28;20064;-79
2023/04/06 09:09:49;;;;;;;22.17;16.10;;;;;;;;;;4992725;28;20026;-79
2023/04/06 09:12:24;;;;;;;21.65;19.30;;;;;;;;;;4989899;28;20716;-79
2023/04/06 09:14:49;;;;;;;21.35;18.10;;;;;;;;;;4994548;28;20359;-80
2023/04/06 09:17:24;;;;;;;17.42;15.18;;;;;;;;;;4992233;28;20040;-79
2023/04/06 09:19:50;;;;;;;21.70;19.40;;;;;;;;;;4986743;28;20167;-78
2023/04/06 09:22:16;;;;;;;28.17;24.77;;;;;;;;;;4987742;28;20132;-78
2023/04/06 09:24:45;;;;;;;21.92;18.23;;;;;;;;;;4996337;28;20433;-79
2023/04/06 09:27:11;;;;;;;23.17;20.88;;;;;;;;;;4996517;28;20445;-79
2023/04/06 09:29:36;;;;;;;78.20;55.35;;;;;;;;;;4992668;28;20038;-80
2023/04/06 09:32:05;;;;;;;37.72;29.17;;;;;;;;;;4994291;28;20319;-79
2023/04/06 09:34:31;;;;;;;47.92;36.70;;;;;;;;;;4992651;28;20426;-80
2023/04/06 09:36:56;;;;;;;23.25;20.55;;;;;;;;;;4992681;28;20045;-78
2023/04/06 09:39:23;;;;;;;27.50;24.52;;;;;;;;;;4993648;28;20022;-79
2023/04/06 09:41:50;;;;;;;26.63;22.65;;;;;;;;;;4995902;28;20030;-79
2023/04/06 09:44:15;;;;;;;25.00;19.50;;;;;;;;;;4993040;28;20034;-80
2023/04/06 09:46:42;;;;;;;30.35;22.13;;;;;;;;;;4991554;28;20591;-79
2023/04/06 09:49:08;;;;;;;20.85;17.35;;;;;;;;;;4992791;28;20033;-80
2023/04/06 09:51:39;;;;;;;16.77;14.85;;;;;;;;;;4992407;28;20100;-81
2023/04/06 09:54:05;;;;;;;18.10;16.20;;;;;;;;;;4991947;28;20410;-80
2023/04/06 09:56:33;;;;;;;15.18;13.68;;;;;;;;;;4994903;28;20026;-81
2023/04/06 09:59:02;;;;;;;18.65;16.08;;;;;;;;;;4993744;28;20084;-78
2023/04/06 10:01:29;;;;;;;20.33;18.02;;;;;;;;;;4993221;28;20049;-79
2023/04/06 10:04:01;;;;;;;29.88;21.55;;;;;;;;;;4990874;28;20037;-81
2023/04/06 10:06:27;;;;;;;24.02;16.50;;;;;;;;;;4992896;28;20129;-80
2023/04/06 10:08:55;;;;;;;21.77;18.33;;;;;;;;;;4994257;28;20034;-80
2023/04/06 10:11:20;;;;;;;19.83;16.20;;;;;;;;;;4994181;28;20026;-80
2023/04/06 10:13:48;;;;;;;24.73;20.00;;;;;;;;;;4993264;28;20101;-80
2023/04/06 10:16:14;;;;;;;23.02;20.55;;;;;;;;;;4990211;28;20053;-79
2023/04/06 10:18:41;;;;;;;31.63;24.50;;;;;;;;;;4994378;28;20022;-79
2023/04/06 10:21:09;;;;;;;24.98;19.00;;;;;;;;;;4993153;28;20033;-80
2023/04/06 10:23:41;;;;;;;24.25;20.50;;;;;;;;;;4993714;28;20061;-80
2023/04/06 10:26:12;;;;;;;20.67;18.55;;;;;;;;;;4994272;28;20144;-81
2023/04/06 10:28:37;;;;;;;20.48;17.77;;;;;;;;;;4991061;28;20032;-80
2023/04/06 10:31:06;;;;;;;23.92;20.45;;;;;;;;;;4991967;28;20030;-78
2023/04/06 10:33:31;;;;;;;24.30;19.25;;;;;;;;;;4996256;28;20457;-79
2023/04/06 10:35:57;;;;;;;29.45;22.55;;;;;;;;;;4992042;28;20060;-80
2023/04/06 10:38:42;;;;;;;22.27;19.00;;;;;;;;;;4991779;28;20430;-79
2023/04/06 10:41:09;;;;;;;18.00;16.10;;;;;;;;;;4994015;28;20035;-79
2023/04/06 10:43:36;;;;;;;21.90;18.55;;;;;;;;;;4992911;28;20026;-77
2023/04/06 10:46:01;;;;;;;21.42;19.25;;;;;;;;;;4990921;28;20352;-79
2023/04/06 10:48:40;;;;;;;22.88;20.15;;;;;;;;;;4996186;28;20101;-80
2023/04/06 10:51:26;;;;;;;19.80;17.70;;;;;;;;;;4993852;28;20058;-78
2023/04/06 10:53:52;;;;;;;19.02;15.85;;;;;;;;;;4992769;28;20023;-79
2023/04/06 10:56:20;;;;;;;18.73;16.70;;;;;;;;;;4990520;28;20104;-80
2023/04/06 10:58:50;;;;;;;18.52;16.58;;;;;;;;;;4994800;28;20095;-81
2023/04/06 11:01:16;;;;;;;19.05;15.95;;;;;;;;;;4992333;28;20038;-80
2023/04/06 11:03:43;;;;;;;20.58;17.27;;;;;;;;;;4990738;28;20081;-79
2023/04/06 11:06:08;;;;;;;19.35;15.60;;;;;;;;;;4993980;28;20049;-80
2023/04/06 11:08:33;;;;;;;21.45;19.25;;;;;;;;;;4991650;28;20021;-80
2023/04/06 11:11:07;;;;;;;18.05;16.02;;;;;;;;;;4993907;28;20068;-80
2023/04/06 11:13:46;;;;;;;25.75;21.65;;;;;;;;;;4990369;28;20037;-78
2023/04/06 11:16:21;;;;;;;15.90;14.20;;;;;;;;;;4992097;28;20037;-79
2023/04/06 11:18:51;;;;;;;18.35;16.45;;;;;;;;;;4990906;28;20024;-78
2023/04/06 11:21:16;;;;;;;19.02;16.95;;;;;;;;;;4994394;28;20038;-79
2023/04/06 11:23:42;;;;;;;17.52;15.73;;;;;;;;;;4990615;28;20049;-79
2023/04/06 11:26:11;;;;;;;19.13;17.20;;;;;;;;;;4996156;28;20083;-79
2023/04/06 11:28:36;;;;;;;26.83;20.60;;;;;;;;;;4991794;28;20121;-79
2023/04/06 11:31:02;;;;;;;28.02;22.40;;;;;;;;;;4993266;28;20109;-80
2023/04/06 11:33:27;;;;;;;28.45;24.67;;;;;;;;;;4991782;28;20426;-78
2023/04/06 11:35:56;;;;;;;22.15;19.65;;;;;;;;;;4991134;28;20165;-78
2023/04/06 11:38:21;;;;;;;21.52;18.10;;;;;;;;;;4991944;28;20026;-79
2023/04/06 11:40:52;;;;;;;21.88;19.23;;;;;;;;;;4990364;28;20105;-78
2023/04/06 11:43:17;;;;;;;20.88;18.70;;;;;;;;;;4992581;28;20038;-79
2023/04/06 11:45:43;;;;;;;18.27;16.33;;;;;;;;;;4990368;28;20156;-80
2023/04/06 11:48:17;;;;;;;34.95;28.95;;;;;;;;;;4990745;28;20465;-79
2023/04/06 11:50:43;;;;;;;25.05;21.15;;;;;;;;;;4992285;28;20065;-79
2023/04/06 11:53:08;;;;;;;24.33;20.13;;;;;;;;;;4990401;28;20053;-79
2023/04/06 11:55:39;;;;;;;28.75;21.55;;;;;;;;;;4993416;28;20334;-81
2023/04/06 11:58:05;;;;;;;32.22;25.92;;;;;;;;;;4990375;28;20121;-79
2023/04/06 12:00:34;;;;;;;21.95;18.45;;;;;;;;;;4990624;28;20058;-78
2023/04/06 12:03:00;;;;;;;36.33;29.48;;;;;;;;;;4994166;28;20026;-79
2023/04/06 12:05:26;;;;;;;31.13;26.58;;;;;;;;;;4989927;28;20038;-78
2023/04/06 12:07:51;;;;;;;31.70;26.42;;;;;;;;;;4991573;28;20022;-79
2023/04/06 12:10:16;;;;;;;24.20;20.67;;;;;;;;;;4991311;28;20030;-79
2023/04/06 12:12:42;;;;;;;32.40;25.08;;;;;;;;;;4990160;28;20065;-78
2023/04/06 12:15:07;;;;;;;29.75;24.33;;;;;;;;;;4992820;28;20761;-79
2023/04/06 12:17:32;;;;;;;33.63;24.98;;;;;;;;;;4991126;28;20114;-79
2023/04/06 12:19:58;;;;;;;32.95;25.25;;;;;;;;;;4990397;28;20464;-79
2023/04/06 12:22:23;;;;;;;32.22;23.50;;;;;;;;;;4990353;28;20026;-79
2023/04/06 12:24:48;;;;;;;27.55;22.17;;;;;;;;;;4990148;28;20361;-79
2023/04/06 12:27:14;;;;;;;24.90;20.45;;;;;;;;;;4976182;28;20037;-80
2023/04/06 12:29:39;;;;;;;24.35;19.38;;;;;;;;;;4970090;28;20176;-79
2023/04/06 12:32:05;;;;;;;27.73;22.02;;;;;;;;;;4978204;28;20233;-79
2023/04/06 12:34:31;;;;;;;30.35;23.83;;;;;;;;;;4974377;28;20073;-79
2023/04/06 12:36:56;;;;;;;32.47;26.83;;;;;;;;;;4976608;28;20511;-79
2023/04/06 12:39:22;;;;;;;26.38;21.05;;;;;;;;;;4974770;28;20022;-79
2023/04/06 12:41:47;;;;;;;18.63;15.85;;;;;;;;;;4975345;28;20121;-78
2023/04/06 12:44:13;;;;;;;19.50;17.50;;;;;;;;;;4975231;28;20022;-80
2023/04/06 12:46:38;;;;;;;30.00;22.88;;;;;;;;;;4975681;28;20050;-80
2023/04/06 12:49:03;;;;;;;25.95;21.42;;;;;;;;;;4978788;28;20034;-80
2023/04/06 12:51:29;;;;;;;26.42;22.92;;;;;;;;;;4970757;28;20050;-79
2023/04/06 12:53:54;;;;;;;18.48;16.08;;;;;;;;;;4982750;28;20034;-78
2023/04/06 12:56:22;;;;;;;23.63;20.88;;;;;;;;;;4968326;28;20030;-79
2023/04/06 12:58:47;;;;;;;21.80;19.38;;;;;;;;;;4973049;28;20030;-80
2023/04/06 13:01:13;;;;;;;18.92;16.92;;;;;;;;;;4989796;28;20093;-79
2023/04/06 13:03:38;;;;;;;23.65;21.17;;;;;;;;;;4972514;28;20109;-79
2023/04/06 13:06:04;;;;;;;36.70;30.85;;;;;;;;;;4967565;28;20054;-79
2023/04/06 13:08:29;;;;;;;22.98;19.60;;;;;;;;;;4965931;28;20100;-79
2023/04/06 13:10:55;;;;;;;37.40;29.85;;;;;;;;;;4966563;28;20030;-79
2023/04/06 13:13:22;;;;;;;22.83;19.77;;;;;;;;;;4966339;28;20088;-79
2023/04/06 13:15:48;;;;;;;19.77;17.63;;;;;;;;;;4975888;28;20353;-80
2023/04/06 13:18:13;;;;;;;22.45;18.02;;;;;;;;;;4977822;28;20029;-78
2023/04/06 13:20:39;;;;;;;37.45;30.23;;;;;;;;;;4978912;28;20026;-79
2023/04/06 13:23:04;;;;;;;29.25;21.80;;;;;;;;;;4978893;28;20029;-78
2023/04/06 13:25:30;;;;;;;21.05;18.80;;;;;;;;;;4975689;28;20027;-79
2023/04/06 13:27:55;;;;;;;21.80;16.98;;;;;;;;;;4964901;28;20061;-80
2023/04/06 13:30:21;;;;;;;26.30;20.17;;;;;;;;;;4994800;28;20478;-79
2023/04/06 13:32:46;;;;;;;28.88;23.90;;;;;;;;;;4990115;28;20041;-79
2023/04/06 13:35:12;;;;;;;24.77;19.90;;;;;;;;;;4996522;28;20365;-80
2023/04/06 13:37:37;;;;;;;25.60;19.67;;;;;;;;;;4997904;28;20038;-76
2023/04/06 13:40:04;;;;;;;25.33;21.08;;;;;;;;;;4995653;28;20026;-76
2023/04/06 13:42:30;;;;;;;26.73;21.10;;;;;;;;;;4983960;28;20037;-77
2023/04/06 13:44:55;;;;;;;28.27;21.27;;;;;;;;;;4997010;28;20038;-78
2023/04/06 13:47:23;;;;;;;51.05;39.05;;;;;;;;;;4998419;28;20116;-76
2023/04/06 13:49:52;;;;;;;35.38;28.83;;;;;;;;;;4986947;28;20105;-79
2023/04/06 13:52:18;;;;;;;26.88;21.90;;;;;;;;;;4998448;28;20036;-78
2023/04/06 13:54:43;;;;;;;28.05;23.23;;;;;;;;;;4998562;28;20854;-78
2023/04/06 13:57:09;;;;;;;22.45;19.20;;;;;;;;;;4997638;28;20137;-78
2023/04/06 13:59:37;;;;;;;32.13;25.55;;;;;;;;;;4996369;28;20534;-78
2023/04/06 14:02:03;;;;;;;47.95;36.75;;;;;;;;;;4996983;28;20022;-79
2023/04/06 14:04:29;;;;;;;39.63;27.42;;;;;;;;;;4990731;28;20034;-78
2023/04/06 14:06:54;;;;;;;22.67;19.83;;;;;;;;;;4981056;28;20107;-78
2023/04/06 14:09:20;;;;;;;33.20;23.83;;;;;;;;;;4996235;28;20381;-79